createdAt,value
2023-03-18T00:01:11.764Z,18.80
2023-03-18T00:03:39.294Z,20.38
2023-03-18T00:06:16.728Z,20.17
2023-03-18T00:08:45.467Z,24.00
2023-03-18T00:11:14.621Z,19.83
2023-03-18T00:13:42.495Z,21.42
2023-03-18T00:16:11.549Z,22.02
2023-03-18T00:18:40.297Z,19.83
2023-03-18T00:21:08.431Z,21.02
2023-03-18T00:23:37.052Z,19.05
2023-03-18T00:26:04.958Z,18.65
2023-03-18T00:28:32.763Z,24.15
2023-03-18T00:31:09.310Z,17.30
2023-03-18T00:33:38.327Z,18.83
2023-03-18T00:36:11.161Z,17.88
2023-03-18T00:38:38.574Z,19.30
2023-03-18T00:41:12.091Z,15.52
2023-03-18T00:43:52.733Z,16.58
2023-03-18T00:46:24.507Z,14.90
2023-03-18T00:48:54.149Z,14.75
2023-03-18T00:51:22.984Z,13.65
2023-03-18T00:53:52.551Z,13.52
2023-03-18T00:56:22.267Z,11.73
2023-03-18T00:58:52.569Z,13.95
2023-03-18T01:01:21.362Z,14.20
2023-03-18T01:03:50.122Z,15.02
2023-03-18T01:06:22.686Z,11.43
2023-03-18T01:08:50.629Z,12.15
2023-03-18T01:11:18.779Z,13.55
2023-03-18T01:13:46.609Z,15.32
2023-03-18T01:16:14.418Z,14.10
2023-03-18T01:18:41.979Z,16.67
2023-03-18T01:21:10.068Z,11.43
2023-03-18T01:23:42.402Z,13.73
2023-03-18T01:26:10.806Z,11.98
2023-03-18T01:28:42.501Z,11.20
2023-03-18T01:31:09.945Z,12.88
2023-03-18T01:33:37.342Z,13.75
2023-03-18T01:36:05.310Z,14.60
2023-03-18T01:38:33.961Z,15.30
2023-03-18T01:41:11.274Z,12.75
2023-03-18T01:43:41.237Z,13.48
2023-03-18T01:46:40.850Z,15.15
2023-03-18T01:49:17.544Z,13.82
2023-03-18T01:52:00.491Z,14.75
2023-03-18T01:54:29.769Z,13.55
2023-03-18T01:56:57.451Z,16.20
2023-03-18T01:59:28.463Z,13.52
2023-03-18T02:02:03.287Z,13.80
2023-03-18T02:04:37.639Z,15.85
2023-03-18T02:07:07.872Z,13.05
2023-03-18T02:12:04.314Z,11.98
2023-03-18T02:14:32.398Z,12.70
2023-03-18T02:17:12.633Z,13.07
2023-03-18T02:19:54.435Z,11.77
2023-03-18T02:22:29.381Z,11.38
2023-03-18T02:25:12.128Z,9.40
2023-03-18T02:27:42.672Z,10.52
2023-03-18T02:30:22.914Z,8.00
2023-03-18T02:32:53.191Z,13.25
2023-03-18T02:35:20.731Z,9.75
2023-03-18T02:37:48.989Z,9.55
2023-03-18T02:40:33.297Z,10.48
2023-03-18T02:43:32.693Z,10.10
2023-03-18T02:46:15.479Z,8.98
2023-03-18T02:48:44.878Z,9.10
2023-03-18T02:51:14.586Z,9.30
2023-03-18T02:53:43.823Z,8.80
2023-03-18T02:56:13.555Z,8.05
2023-03-18T02:58:42.661Z,10.05
2023-03-18T03:01:11.492Z,10.30
2023-03-18T03:03:39.384Z,8.40
2023-03-18T03:06:07.670Z,8.23
2023-03-18T03:08:35.180Z,6.90
2023-03-18T03:11:05.574Z,9.15
2023-03-18T03:13:36.075Z,9.70
2023-03-18T03:16:03.859Z,10.25
2023-03-18T03:18:31.201Z,8.88
2023-03-18T03:20:58.878Z,8.20
2023-03-18T03:23:26.226Z,6.13
2023-03-18T03:25:53.524Z,7.90
2023-03-18T03:28:21.303Z,12.43
2023-03-18T03:30:49.544Z,9.43
2023-03-18T03:33:16.909Z,9.05
2023-03-18T03:35:44.203Z,8.23
2023-03-18T03:38:12.293Z,12.32
2023-03-18T03:40:40.260Z,8.75
2023-03-18T03:43:07.611Z,12.50
2023-03-18T03:45:34.850Z,10.07
2023-03-18T03:48:02.121Z,11.70
2023-03-18T03:50:29.798Z,11.73
2023-03-18T03:52:58.249Z,8.68
2023-03-18T03:55:27.798Z,10.68
2023-03-18T03:57:56.447Z,8.55
2023-03-18T04:00:24.648Z,7.47
2023-03-18T04:02:53.027Z,7.53
2023-03-18T04:05:23.572Z,10.20
2023-03-18T04:07:51.520Z,9.55
2023-03-18T04:10:23.004Z,8.05
2023-03-18T04:12:50.883Z,7.30
2023-03-18T04:15:19.909Z,9.52
2023-03-18T04:17:49.998Z,9.75
2023-03-18T04:20:19.107Z,9.68
2023-03-18T04:22:47.945Z,6.40
2023-03-18T04:27:45.069Z,11.57
2023-03-18T04:30:14.173Z,8.32
2023-03-18T04:32:55.008Z,7.57
2023-03-18T04:35:26.146Z,9.88
2023-03-18T04:37:54.267Z,10.38
2023-03-18T04:40:22.376Z,10.85
2023-03-18T04:42:50.279Z,7.55
2023-03-18T04:45:23.276Z,7.47
2023-03-18T04:47:50.776Z,7.70
2023-03-18T04:50:19.172Z,9.20
2023-03-18T04:52:47.178Z,6.78
2023-03-18T04:55:20.633Z,9.00
2023-03-18T04:57:50.760Z,6.43
2023-03-18T05:00:22.332Z,9.85
2023-03-18T05:02:53.323Z,9.40
2023-03-18T05:07:52.187Z,10.00
2023-03-18T05:10:21.337Z,9.47
2023-03-18T05:12:48.883Z,10.13
2023-03-18T05:15:20.309Z,10.18
2023-03-18T05:17:53.842Z,10.80
2023-03-18T05:20:21.469Z,10.70
2023-03-18T05:22:49.176Z,8.32
2023-03-18T05:25:27.130Z,9.88
2023-03-18T05:27:54.602Z,9.35
2023-03-18T05:30:33.041Z,9.95
2023-03-18T05:33:00.456Z,9.60
2023-03-18T05:35:48.684Z,11.10
2023-03-18T05:38:18.797Z,12.23
2023-03-18T05:40:46.794Z,10.20
2023-03-18T05:43:21.899Z,7.90
2023-03-18T05:45:53.254Z,11.38
2023-03-18T05:48:27.129Z,12.45
2023-03-18T05:50:58.819Z,11.00
2023-03-18T05:53:27.833Z,9.67
2023-03-18T05:56:08.759Z,13.55
2023-03-18T05:58:36.956Z,13.02
2023-03-18T06:01:22.742Z,14.60
2023-03-18T06:03:50.752Z,16.42
2023-03-18T06:06:19.805Z,14.00
2023-03-18T06:08:47.172Z,15.85
2023-03-18T06:11:15.268Z,14.32
2023-03-18T06:13:44.132Z,13.43
2023-03-18T06:16:12.459Z,12.73
2023-03-18T06:18:40.731Z,12.25
2023-03-18T06:21:10.035Z,14.40
2023-03-18T06:23:37.739Z,14.73
2023-03-18T06:26:05.253Z,14.02
2023-03-18T06:28:37.520Z,13.02
2023-03-18T06:31:10.787Z,13.02
2023-03-18T06:33:39.243Z,10.90
2023-03-18T06:36:09.100Z,9.77
2023-03-18T06:38:40.565Z,8.27
2023-03-18T06:41:08.902Z,15.80
2023-03-18T06:43:40.411Z,9.82
2023-03-18T06:46:08.081Z,13.95
2023-03-18T06:48:36.515Z,9.88
2023-03-18T06:51:03.930Z,12.60
2023-03-18T06:53:36.535Z,8.38
2023-03-18T06:56:06.058Z,9.40
2023-03-18T06:58:43.484Z,7.70
2023-03-18T07:01:12.717Z,9.48
2023-03-18T07:03:43.640Z,7.63
2023-03-18T07:06:12.362Z,6.93
2023-03-18T07:08:40.994Z,7.10
2023-03-18T07:11:08.757Z,6.18
2023-03-18T07:13:39.332Z,6.90
2023-03-18T07:16:13.567Z,6.13
2023-03-18T07:18:40.961Z,9.93
2023-03-18T07:21:09.708Z,6.90
2023-03-18T07:23:37.601Z,6.78
2023-03-18T07:26:05.062Z,7.38
2023-03-18T07:28:32.927Z,7.65
2023-03-18T07:31:01.168Z,5.57
2023-03-18T07:33:28.989Z,7.70
2023-03-18T07:35:56.808Z,5.13
2023-03-18T07:38:24.356Z,5.05
2023-03-18T07:40:52.290Z,11.32
2023-03-18T07:43:19.567Z,4.20
2023-03-18T07:45:46.806Z,4.78
2023-03-18T07:48:14.340Z,7.85
2023-03-18T07:50:41.909Z,7.00
2023-03-18T07:53:09.383Z,6.57
2023-03-18T07:55:36.619Z,6.47
2023-03-18T07:58:04.686Z,8.27
2023-03-18T08:00:32.444Z,6.70
2023-03-18T08:02:59.746Z,4.22
2023-03-18T08:05:27.601Z,8.57
2023-03-18T08:07:55.306Z,7.75
2023-03-18T08:10:22.590Z,5.60
2023-03-18T08:12:53.498Z,6.00
2023-03-18T08:15:22.357Z,6.47
2023-03-18T08:17:52.565Z,5.88
2023-03-18T08:20:20.168Z,5.43
2023-03-18T08:22:48.457Z,8.50
2023-03-18T08:25:15.849Z,9.43
2023-03-18T08:27:43.237Z,10.68
2023-03-18T08:30:11.522Z,6.47
2023-03-18T08:32:39.838Z,5.03
2023-03-18T08:35:07.443Z,10.32
2023-03-18T08:37:35.862Z,7.80
2023-03-18T08:40:05.231Z,8.25
2023-03-18T08:42:32.513Z,15.02
2023-03-18T08:44:59.745Z,7.50
2023-03-18T08:47:27.487Z,7.03
2023-03-18T08:49:54.654Z,12.23
2023-03-18T08:52:22.458Z,5.35
2023-03-18T08:54:49.898Z,6.30
2023-03-18T08:57:17.996Z,9.15
2023-03-18T08:59:45.797Z,8.20
2023-03-18T09:02:18.393Z,8.90
2023-03-18T09:04:46.642Z,10.30
2023-03-18T09:07:14.741Z,12.65
2023-03-18T09:09:44.062Z,7.97
2023-03-18T09:12:14.103Z,13.45
2023-03-18T09:14:43.698Z,10.93
2023-03-18T09:17:11.387Z,9.38
2023-03-18T09:19:38.741Z,13.65
2023-03-18T09:22:05.999Z,9.02
2023-03-18T09:24:33.319Z,10.93
2023-03-18T09:27:00.555Z,8.80
2023-03-18T09:29:27.871Z,12.90
2023-03-18T09:31:55.732Z,11.50
2023-03-18T09:34:23.669Z,8.57
2023-03-18T09:36:51.923Z,8.88
2023-03-18T09:39:20.428Z,9.73
2023-03-18T09:42:03.722Z,8.82
2023-03-18T09:44:36.345Z,8.65
2023-03-18T09:47:28.399Z,10.38
2023-03-18T09:50:16.792Z,8.43
2023-03-18T09:52:48.008Z,11.30
2023-03-18T09:55:27.378Z,8.85
2023-03-18T09:57:57.698Z,10.10
2023-03-18T10:00:30.124Z,9.02
2023-03-18T10:03:06.483Z,12.63
2023-03-18T10:05:34.801Z,8.80
2023-03-18T10:08:08.235Z,7.55
2023-03-18T10:10:38.340Z,8.52
2023-03-18T10:15:43.288Z,7.00
2023-03-18T10:18:13.542Z,8.65
2023-03-18T10:23:36.379Z,9.07
2023-03-18T10:26:33.289Z,10.57
2023-03-18T10:29:03.956Z,7.85
2023-03-18T10:31:38.905Z,11.00
2023-03-18T10:34:13.287Z,9.15
2023-03-18T10:36:49.798Z,7.07
2023-03-18T10:39:19.590Z,9.30
2023-03-18T10:41:51.549Z,7.40
2023-03-18T10:44:33.042Z,6.78
2023-03-18T10:47:11.444Z,7.25
2023-03-18T10:49:42.520Z,8.20
2023-03-18T10:52:43.533Z,8.65
2023-03-18T10:55:19.960Z,10.80
2023-03-18T10:57:47.571Z,8.18
2023-03-18T11:00:30.778Z,9.60
2023-03-18T11:02:59.415Z,5.72
2023-03-18T11:05:30.169Z,8.68
2023-03-18T11:08:00.796Z,7.40
2023-03-18T11:10:34.621Z,14.48
2023-03-18T11:13:03.391Z,6.43
2023-03-18T11:15:37.002Z,9.32
2023-03-18T11:18:05.305Z,9.60
2023-03-18T11:20:43.102Z,10.25
2023-03-18T11:23:18.043Z,12.80
2023-03-18T11:25:46.947Z,8.65
2023-03-18T11:28:23.155Z,10.57
2023-03-18T11:30:56.156Z,9.10
2023-03-18T11:33:24.846Z,9.55
2023-03-18T11:35:58.450Z,9.05
2023-03-18T11:38:31.779Z,7.20
2023-03-18T11:41:09.149Z,7.65
2023-03-18T11:43:37.972Z,8.32
2023-03-18T11:46:05.849Z,8.60
2023-03-18T11:48:37.441Z,11.23
2023-03-18T11:51:29.623Z,9.15
2023-03-18T11:54:19.174Z,8.48
2023-03-18T11:56:57.543Z,9.13
2023-03-18T11:59:33.104Z,9.07
2023-03-18T12:02:22.725Z,7.10
2023-03-18T12:04:59.343Z,7.05
2023-03-18T12:07:54.817Z,5.60
2023-03-18T12:10:24.047Z,8.52
2023-03-18T12:13:15.831Z,7.57
2023-03-18T12:16:20.698Z,7.32
2023-03-18T12:19:33.287Z,4.68
2023-03-18T12:22:48.965Z,6.40
2023-03-18T12:26:03.941Z,10.02
2023-03-18T12:28:41.633Z,7.35
2023-03-18T12:31:24.928Z,7.05
2023-03-18T12:34:25.761Z,7.13
2023-03-18T12:37:02.703Z,8.20
2023-03-18T12:39:42.816Z,8.52
2023-03-18T12:42:31.713Z,5.68
2023-03-18T12:45:02.197Z,8.35
2023-03-18T12:47:35.895Z,6.25
2023-03-18T12:50:16.461Z,6.95
2023-03-18T12:52:52.947Z,12.63
2023-03-18T12:55:49.419Z,9.00
2023-03-18T12:58:19.756Z,13.35
2023-03-18T13:00:53.545Z,7.10
2023-03-18T13:03:40.184Z,6.45
2023-03-18T13:06:37.580Z,9.48
2023-03-18T13:09:21.864Z,5.63
2023-03-18T13:12:16.300Z,6.20
2023-03-18T13:14:52.350Z,4.03
2023-03-18T13:17:29.700Z,4.75
2023-03-18T13:20:01.215Z,5.43
2023-03-18T13:22:44.071Z,6.10
2023-03-18T13:25:18.115Z,5.45
2023-03-18T13:28:11.541Z,4.80
2023-03-18T13:31:06.492Z,6.20
2023-03-18T13:33:53.140Z,5.72
2023-03-18T13:36:32.494Z,5.40
2023-03-18T13:39:26.758Z,8.60
2023-03-18T13:42:18.501Z,7.32
2023-03-18T13:44:58.412Z,4.22
2023-03-18T13:47:30.061Z,6.68
2023-03-18T13:50:30.258Z,6.93
2023-03-18T13:52:59.683Z,7.90
2023-03-18T13:55:40.149Z,8.57
2023-03-18T13:58:30.308Z,7.00
2023-03-18T14:01:03.329Z,5.80
2023-03-18T14:03:33.218Z,5.88
2023-03-18T14:06:13.061Z,9.88
2023-03-18T14:08:44.275Z,6.97
2023-03-18T14:11:17.831Z,7.10
2023-03-18T14:13:51.882Z,6.20
2023-03-18T14:16:30.061Z,4.90
2023-03-18T14:19:00.239Z,6.82
2023-03-18T14:24:17.436Z,5.85
2023-03-18T14:27:08.671Z,6.07
2023-03-18T14:29:44.992Z,5.57
2023-03-18T14:32:34.200Z,5.75
2023-03-18T14:35:16.667Z,6.20
2023-03-18T14:38:03.533Z,7.20
2023-03-18T14:40:36.372Z,8.57
2023-03-18T14:43:09.800Z,4.93
2023-03-18T14:45:40.585Z,6.50
2023-03-18T14:48:21.516Z,7.88
2023-03-18T14:50:52.872Z,4.30
2023-03-18T14:53:40.474Z,5.20
2023-03-18T14:56:21.874Z,6.95
2023-03-18T14:58:53.432Z,6.22
2023-03-18T15:01:27.670Z,7.50
2023-03-18T15:03:55.933Z,7.40
2023-03-18T15:06:25.743Z,9.15
2023-03-18T15:08:58.694Z,5.90
2023-03-18T15:11:26.572Z,7.25
2023-03-18T15:13:56.598Z,5.35
2023-03-18T15:16:25.346Z,5.85
2023-03-18T15:18:54.865Z,5.22
2023-03-18T15:21:37.447Z,7.57
2023-03-18T15:24:07.718Z,11.00
2023-03-18T15:26:37.999Z,6.75
2023-03-18T15:29:33.914Z,5.70
2023-03-18T15:32:14.876Z,8.50
2023-03-18T15:34:43.950Z,7.70
2023-03-18T15:37:25.987Z,10.40
2023-03-18T15:39:56.669Z,5.28
2023-03-18T15:42:24.253Z,7.15
2023-03-18T15:45:01.579Z,5.93
2023-03-18T15:47:31.562Z,10.63
2023-03-18T15:50:09.905Z,11.25
2023-03-18T15:52:41.784Z,8.70
2023-03-18T15:55:32.868Z,8.32
2023-03-18T15:58:01.199Z,10.50
2023-03-18T16:00:28.766Z,7.75
2023-03-18T16:02:56.092Z,5.00
2023-03-18T16:05:26.257Z,5.28
2023-03-18T16:07:54.379Z,6.72
2023-03-18T16:10:23.848Z,8.13
2023-03-18T16:12:56.274Z,4.28
2023-03-18T16:15:25.123Z,7.43
2023-03-18T16:17:53.810Z,5.05
2023-03-18T16:20:22.837Z,8.00
2023-03-18T16:22:50.999Z,8.68
2023-03-18T16:27:51.944Z,8.02
2023-03-18T16:30:24.974Z,5.57
2023-03-18T16:32:53.951Z,5.95
2023-03-18T16:35:26.387Z,7.35
2023-03-18T16:37:53.674Z,7.88
2023-03-18T16:40:23.090Z,4.47
2023-03-18T16:42:51.065Z,5.00
2023-03-18T16:45:22.281Z,4.05
2023-03-18T16:47:51.220Z,5.38
2023-03-18T16:50:20.550Z,7.97
2023-03-18T16:52:48.020Z,4.70
2023-03-18T16:55:17.734Z,5.45
2023-03-18T16:57:56.332Z,6.60
2023-03-18T17:00:26.157Z,6.72
2023-03-18T17:02:53.695Z,4.38
2023-03-18T17:05:22.081Z,7.65
2023-03-18T17:07:50.238Z,5.65
2023-03-18T17:10:27.474Z,7.63
2023-03-18T17:12:57.842Z,4.38
2023-03-18T17:15:31.849Z,3.53
2023-03-18T17:17:59.908Z,3.25
2023-03-18T17:20:29.063Z,4.43
2023-03-18T17:22:56.251Z,2.25
2023-03-18T17:25:25.640Z,3.20
2023-03-18T17:28:05.094Z,5.55
2023-03-18T17:30:35.217Z,5.93
2023-03-18T17:35:30.946Z,3.65
2023-03-18T17:37:59.174Z,5.32
2023-03-18T17:40:29.088Z,6.65
2023-03-18T17:42:56.489Z,7.63
2023-03-18T17:45:32.379Z,7.57
2023-03-18T17:48:22.408Z,3.63
2023-03-18T17:50:52.612Z,8.38
2023-03-18T17:55:51.839Z,5.50
2023-03-18T17:58:21.306Z,8.25
2023-03-18T18:00:48.671Z,7.18
2023-03-18T18:03:25.643Z,6.75
2023-03-18T18:05:55.208Z,10.60
2023-03-18T18:08:24.972Z,5.53
2023-03-18T18:10:53.530Z,6.20
2023-03-18T18:13:22.759Z,5.72
2023-03-18T18:15:51.974Z,11.77
2023-03-18T18:18:25.697Z,4.47
2023-03-18T18:21:01.304Z,6.78
2023-03-18T18:23:33.728Z,5.45
2023-03-18T18:26:04.618Z,4.53
2023-03-18T18:28:34.799Z,3.28
2023-03-18T18:31:03.727Z,6.28
2023-03-18T18:33:32.227Z,5.60
2023-03-18T18:36:00.041Z,6.53
2023-03-18T18:38:27.540Z,5.07
2023-03-18T18:40:56.265Z,4.35
2023-03-18T18:43:24.945Z,4.82
2023-03-18T18:45:53.664Z,7.95
2023-03-18T18:48:34.627Z,5.80
2023-03-18T18:51:04.247Z,4.35
2023-03-18T18:53:38.524Z,3.33
2023-03-18T18:56:25.310Z,3.72
2023-03-18T18:58:53.281Z,3.53
2023-03-18T19:01:21.114Z,4.35
2023-03-18T19:03:48.856Z,3.97
2023-03-18T19:06:27.729Z,4.05
2023-03-18T19:08:56.620Z,4.20
2023-03-18T19:11:25.013Z,6.55
2023-03-18T19:13:53.256Z,5.78
2023-03-18T19:16:33.232Z,4.07
2023-03-18T19:19:01.185Z,6.53
2023-03-18T19:21:28.711Z,5.57
2023-03-18T19:23:58.299Z,3.97
2023-03-18T19:26:25.567Z,4.80
2023-03-18T19:28:58.784Z,5.07
2023-03-18T19:31:30.478Z,5.30
2023-03-18T19:33:59.895Z,5.00
2023-03-18T19:36:38.891Z,4.68
2023-03-18T19:39:06.295Z,6.43
2023-03-18T19:41:33.581Z,5.18
2023-03-18T19:44:14.700Z,5.35
2023-03-18T19:46:42.290Z,5.82
2023-03-18T19:49:16.883Z,7.45
2023-03-18T19:51:44.236Z,5.00
2023-03-18T19:54:27.303Z,5.35
2023-03-18T19:56:56.332Z,9.77
2023-03-18T19:59:25.359Z,15.52
2023-03-18T20:01:52.935Z,10.23
2023-03-18T20:04:20.660Z,10.88
2023-03-18T20:06:48.006Z,7.15
2023-03-18T20:09:15.473Z,5.78
2023-03-18T20:11:42.869Z,7.40
2023-03-18T20:14:31.231Z,10.70
2023-03-18T20:17:05.874Z,7.55
2023-03-18T20:19:33.219Z,6.53
2023-03-18T20:22:00.484Z,6.43
2023-03-18T20:24:29.495Z,4.90
2023-03-18T20:26:56.827Z,5.28
2023-03-18T20:29:25.385Z,6.93
2023-03-18T20:31:53.533Z,8.05
2023-03-18T20:34:20.979Z,5.15
2023-03-18T20:36:48.322Z,5.95
2023-03-18T20:39:21.576Z,6.68
2023-03-18T20:41:48.916Z,5.00
2023-03-18T20:44:16.931Z,7.38
2023-03-18T20:46:44.135Z,7.20
2023-03-18T20:49:11.431Z,6.82
2023-03-18T20:51:40.925Z,7.28
2023-03-18T20:54:18.858Z,6.10
2023-03-18T20:56:46.850Z,4.43
2023-03-18T20:59:14.206Z,5.10
2023-03-18T21:01:41.710Z,5.78
2023-03-18T21:04:12.012Z,4.63
2023-03-18T21:06:42.080Z,5.65
2023-03-18T21:09:13.909Z,5.13
2023-03-18T21:11:41.203Z,5.05
2023-03-18T21:14:14.236Z,4.53
2023-03-18T21:16:41.666Z,5.68
2023-03-18T21:19:09.057Z,5.32
2023-03-18T21:21:38.384Z,6.18
2023-03-18T21:24:31.623Z,6.10
2023-03-18T21:27:04.654Z,6.25
2023-03-18T21:29:33.436Z,6.25
2023-03-18T21:32:02.465Z,6.72
2023-03-18T21:34:29.859Z,5.45
2023-03-18T21:36:57.340Z,6.55
2023-03-18T21:39:24.635Z,6.93
2023-03-18T21:41:52.567Z,5.93
2023-03-18T21:44:19.756Z,6.88
2023-03-18T21:46:47.094Z,7.53
2023-03-18T21:49:14.467Z,7.00
2023-03-18T21:51:41.925Z,5.30
2023-03-18T21:54:17.845Z,6.72
2023-03-18T21:56:45.178Z,4.50
2023-03-18T21:59:12.456Z,7.60
2023-03-18T22:01:40.038Z,7.15
2023-03-18T22:04:07.522Z,14.98
2023-03-18T22:06:34.808Z,7.68
2023-03-18T22:09:02.364Z,8.00
2023-03-18T22:11:29.778Z,7.47
2023-03-18T22:13:57.148Z,7.13
2023-03-18T22:16:24.548Z,7.07
2023-03-18T22:18:51.948Z,8.82
2023-03-18T22:21:23.594Z,7.70
2023-03-18T22:23:51.262Z,6.03
2023-03-18T22:26:19.882Z,8.20
2023-03-18T22:28:48.490Z,6.05
2023-03-18T22:31:22.783Z,6.90
2023-03-18T22:33:51.048Z,6.07
2023-03-18T22:36:19.632Z,5.90
2023-03-18T22:38:47.426Z,6.75
2023-03-18T22:41:23.458Z,6.22
2023-03-18T22:43:51.197Z,5.28
2023-03-18T22:46:18.597Z,6.00
2023-03-18T22:48:46.135Z,4.80
2023-03-18T22:51:22.461Z,3.80
2023-03-18T22:53:52.132Z,5.47
2023-03-18T22:56:22.612Z,5.13
2023-03-18T22:58:50.788Z,5.50
2023-03-18T23:01:20.919Z,6.57
2023-03-18T23:06:19.970Z,5.47
2023-03-18T23:08:50.106Z,5.80
2023-03-18T23:11:17.864Z,6.88
2023-03-18T23:13:49.948Z,6.10
2023-03-18T23:16:20.587Z,4.63
2023-03-18T23:18:48.504Z,3.58
2023-03-18T23:21:24.979Z,5.80
2023-03-18T23:23:52.887Z,4.97
2023-03-18T23:26:22.609Z,6.97
2023-03-18T23:28:49.904Z,7.65
2023-03-18T23:31:17.411Z,4.88
2023-03-18T23:33:44.984Z,4.93
2023-03-18T23:36:13.063Z,7.13
2023-03-18T23:38:43.417Z,4.50
2023-03-18T23:41:11.731Z,4.82
2023-03-18T23:43:42.470Z,6.35
2023-03-18T23:46:09.863Z,4.13
2023-03-18T23:48:37.109Z,6.80
2023-03-18T23:51:04.379Z,6.80
2023-03-18T23:53:32.153Z,5.82
2023-03-18T23:55:59.336Z,5.18
2023-03-18T23:58:26.564Z,7.35
